sensor_id;sensor_type;location;lat;lon;timestamp;temperature;humidity
12477;DHT22;6303;51.504;6.300;2023-06-14T00:01:07;30.30;44.20
12477;DHT22;6303;51.504;6.300;2023-06-14T00:03:35;30.30;44.20
12477;DHT22;6303;51.504;6.300;2023-06-14T00:06:03;30.20;44.20
12477;DHT22;6303;51.504;6.300;2023-06-14T00:08:30;30.20;44.10
12477;DHT22;6303;51.504;6.300;2023-06-14T00:10:57;30.20;44.20
12477;DHT22;6303;51.504;6.300;2023-06-14T00:13:24;30.20;44.20
12477;DHT22;6303;51.504;6.300;2023-06-14T00:15:51;30.20;44.20
12477;DHT22;6303;51.504;6.300;2023-06-14T00:18:20;30.20;44.20
12477;DHT22;6303;51.504;6.300;2023-06-14T00:20:49;30.20;44.80
12477;DHT22;6303;51.504;6.300;2023-06-14T00:23:18;30.20;44.20
12477;DHT22;6303;51.504;6.300;2023-06-14T00:25:45;30.20;44.20
12477;DHT22;6303;51.504;6.300;2023-06-14T00:28:12;30.20;44.20
12477;DHT22;6303;51.504;6.300;2023-06-14T00:30:39;30.20;44.20
12477;DHT22;6303;51.504;6.300;2023-06-14T00:33:06;30.20;44.20
12477;DHT22;6303;51.504;6.300;2023-06-14T00:35:33;30.20;44.20
12477;DHT22;6303;51.504;6.300;2023-06-14T00:38:00;30.20;44.20
12477;DHT22;6303;51.504;6.300;2023-06-14T00:40:29;30.20;44.30
12477;DHT22;6303;51.504;6.300;2023-06-14T00:42:56;30.20;44.30
12477;DHT22;6303;51.504;6.300;2023-06-14T00:45:23;30.20;44.20
12477;DHT22;6303;51.504;6.300;2023-06-14T00:47:51;30.20;44.20
12477;DHT22;6303;51.504;6.300;2023-06-14T00:50:21;30.20;44.30
12477;DHT22;6303;51.504;6.300;2023-06-14T00:52:49;30.10;44.20
12477;DHT22;6303;51.504;6.300;2023-06-14T00:55:17;30.10;44.20
12477;DHT22;6303;51.504;6.300;2023-06-14T00:57:46;30.10;44.20
12477;DHT22;6303;51.504;6.300;2023-06-14T01:00:14;30.10;44.20
12477;DHT22;6303;51.504;6.300;2023-06-14T01:02:41;30.10;44.20
12477;DHT22;6303;51.504;6.300;2023-06-14T01:05:09;30.10;44.20
12477;DHT22;6303;51.504;6.300;2023-06-14T01:07:51;30.10;44.30
12477;DHT22;6303;51.504;6.300;2023-06-14T01:10:30;30.10;44.30
12477;DHT22;6303;51.504;6.300;2023-06-14T01:13:05;30.10;44.30
12477;DHT22;6303;51.504;6.300;2023-06-14T01:15:35;30.10;44.20
12477;DHT22;6303;51.504;6.300;2023-06-14T01:18:04;30.10;44.30
12477;DHT22;6303;51.504;6.300;2023-06-14T01:20:33;30.00;44.20
12477;DHT22;6303;51.504;6.300;2023-06-14T01:23:04;30.00;44.30
12477;DHT22;6303;51.504;6.300;2023-06-14T01:25:31;30.00;44.30
12477;DHT22;6303;51.504;6.300;2023-06-14T01:28:00;30.00;44.30
12477;DHT22;6303;51.504;6.300;2023-06-14T01:30:29;30.00;44.30
12477;DHT22;6303;51.504;6.300;2023-06-14T01:32:59;30.00;44.30
12477;DHT22;6303;51.504;6.300;2023-06-14T01:35:26;30.00;44.30
12477;DHT22;6303;51.504;6.300;2023-06-14T01:37:54;30.00;44.30
12477;DHT22;6303;51.504;6.300;2023-06-14T01:40:24;30.00;44.30
12477;DHT22;6303;51.504;6.300;2023-06-14T01:42:52;30.00;44.30
12477;DHT22;6303;51.504;6.300;2023-06-14T01:45:20;30.00;44.30
12477;DHT22;6303;51.504;6.300;2023-06-14T01:47:47;30.00;44.30
12477;DHT22;6303;51.504;6.300;2023-06-14T01:50:15;30.00;44.30
12477;DHT22;6303;51.504;6.300;2023-06-14T01:52:42;30.00;44.30
12477;DHT22;6303;51.504;6.300;2023-06-14T01:55:10;30.00;44.50
12477;DHT22;6303;51.504;6.300;2023-06-14T01:57:39;29.90;44.50
12477;DHT22;6303;51.504;6.300;2023-06-14T02:00:08;30.00;45.20
12477;DHT22;6303;51.504;6.300;2023-06-14T02:02:41;30.00;44.60
12477;DHT22;6303;51.504;6.300;2023-06-14T02:05:08;30.00;44.60
12477;DHT22;6303;51.504;6.300;2023-06-14T02:07:36;29.90;44.60
12477;DHT22;6303;51.504;6.300;2023-06-14T02:10:03;29.90;44.80
12477;DHT22;6303;51.504;6.300;2023-06-14T02:12:31;29.90;44.80
12477;DHT22;6303;51.504;6.300;2023-06-14T02:14:59;29.90;44.80
12477;DHT22;6303;51.504;6.300;2023-06-14T02:17:28;29.90;44.90
12477;DHT22;6303;51.504;6.300;2023-06-14T02:19:55;29.90;44.90
12477;DHT22;6303;51.504;6.300;2023-06-14T02:22:22;29.90;44.90
12477;DHT22;6303;51.504;6.300;2023-06-14T02:24:50;29.90;44.90
12477;DHT22;6303;51.504;6.300;2023-06-14T02:27:17;29.90;45.00
12477;DHT22;6303;51.504;6.300;2023-06-14T02:29:44;29.80;44.90
12477;DHT22;6303;51.504;6.300;2023-06-14T02:32:12;29.90;45.00
12477;DHT22;6303;51.504;6.300;2023-06-14T02:34:39;29.90;45.00
12477;DHT22;6303;51.504;6.300;2023-06-14T02:37:07;30.00;45.00
12477;DHT22;6303;51.504;6.300;2023-06-14T02:39:34;29.90;45.00
12477;DHT22;6303;51.504;6.300;2023-06-14T02:42:03;29.90;45.00
12477;DHT22;6303;51.504;6.300;2023-06-14T02:44:30;29.80;44.90
12477;DHT22;6303;51.504;6.300;2023-06-14T02:46:59;29.80;45.00
12477;DHT22;6303;51.504;6.300;2023-06-14T02:49:27;29.80;45.00
12477;DHT22;6303;51.504;6.300;2023-06-14T02:51:55;29.80;45.00
12477;DHT22;6303;51.504;6.300;2023-06-14T02:54:22;29.80;45.00
12477;DHT22;6303;51.504;6.300;2023-06-14T02:56:50;29.80;45.00
12477;DHT22;6303;51.504;6.300;2023-06-14T02:59:19;29.80;45.00
12477;DHT22;6303;51.504;6.300;2023-06-14T03:01:47;29.80;45.10
12477;DHT22;6303;51.504;6.300;2023-06-14T03:04:14;29.80;45.10
12477;DHT22;6303;51.504;6.300;2023-06-14T03:06:43;29.80;45.00
12477;DHT22;6303;51.504;6.300;2023-06-14T03:09:17;29.80;45.10
12477;DHT22;6303;51.504;6.300;2023-06-14T03:11:45;29.80;45.10
12477;DHT22;6303;51.504;6.300;2023-06-14T03:14:13;29.80;45.10
12477;DHT22;6303;51.504;6.300;2023-06-14T03:16:44;29.80;45.10
12477;DHT22;6303;51.504;6.300;2023-06-14T03:19:13;29.80;45.20
12477;DHT22;6303;51.504;6.300;2023-06-14T03:21:40;29.80;45.10
12477;DHT22;6303;51.504;6.300;2023-06-14T03:24:12;29.70;45.10
12477;DHT22;6303;51.504;6.300;2023-06-14T03:26:39;29.70;45.10
12477;DHT22;6303;51.504;6.300;2023-06-14T03:29:06;29.70;45.10
12477;DHT22;6303;51.504;6.300;2023-06-14T03:31:34;29.70;45.20
12477;DHT22;6303;51.504;6.300;2023-06-14T03:34:04;29.70;45.10
12477;DHT22;6303;51.504;6.300;2023-06-14T03:36:31;29.70;45.20
12477;DHT22;6303;51.504;6.300;2023-06-14T03:38:59;29.70;45.20
12477;DHT22;6303;51.504;6.300;2023-06-14T03:41:27;29.70;45.20
12477;DHT22;6303;51.504;6.300;2023-06-14T03:43:54;29.70;45.20
12477;DHT22;6303;51.504;6.300;2023-06-14T03:46:22;29.70;45.20
12477;DHT22;6303;51.504;6.300;2023-06-14T03:48:49;29.70;45.20
12477;DHT22;6303;51.504;6.300;2023-06-14T03:51:17;29.70;45.20
12477;DHT22;6303;51.504;6.300;2023-06-14T03:53:44;29.70;45.20
12477;DHT22;6303;51.504;6.300;2023-06-14T03:56:12;29.60;45.20
12477;DHT22;6303;51.504;6.300;2023-06-14T03:58:44;29.70;45.30
12477;DHT22;6303;51.504;6.300;2023-06-14T04:01:11;29.60;45.20
12477;DHT22;6303;51.504;6.300;2023-06-14T04:03:38;29.10;44.90
12477;DHT22;6303;51.504;6.300;2023-06-14T04:06:06;29.60;45.20
12477;DHT22;6303;51.504;6.300;2023-06-14T04:08:33;29.70;45.90
12477;DHT22;6303;51.504;6.300;2023-06-14T04:11:01;29.60;45.20
12477;DHT22;6303;51.504;6.300;2023-06-14T04:13:28;29.60;45.20
12477;DHT22;6303;51.504;6.300;2023-06-14T04:15:57;29.60;45.20
12477;DHT22;6303;51.504;6.300;2023-06-14T04:18:30;29.60;45.20
12477;DHT22;6303;51.504;6.300;2023-06-14T04:20:57;29.70;45.30
12477;DHT22;6303;51.504;6.300;2023-06-14T04:23:25;29.70;45.20
12477;DHT22;6303;51.504;6.300;2023-06-14T04:25:54;29.60;45.20
12477;DHT22;6303;51.504;6.300;2023-06-14T04:28:27;29.60;45.30
12477;DHT22;6303;51.504;6.300;2023-06-14T04:31:00;29.60;45.30
12477;DHT22;6303;51.504;6.300;2023-06-14T04:33:30;29.60;45.20
12477;DHT22;6303;51.504;6.300;2023-06-14T04:35:57;29.60;45.10
12477;DHT22;6303;51.504;6.300;2023-06-14T04:38:26;29.60;45.00
12477;DHT22;6303;51.504;6.300;2023-06-14T04:40:54;29.60;45.20
12477;DHT22;6303;51.504;6.300;2023-06-14T04:43:24;29.60;44.60
12477;DHT22;6303;51.504;6.300;2023-06-14T04:45:56;29.60;43.70
12477;DHT22;6303;51.504;6.300;2023-06-14T04:48:25;29.60;42.80
12477;DHT22;6303;51.504;6.300;2023-06-14T04:50:52;29.60;42.30
12477;DHT22;6303;51.504;6.300;2023-06-14T04:53:20;29.60;42.10
12477;DHT22;6303;51.504;6.300;2023-06-14T04:55:50;29.60;42.10
12477;DHT22;6303;51.504;6.300;2023-06-14T04:58:20;29.60;42.50
12477;DHT22;6303;51.504;6.300;2023-06-14T05:00:47;29.60;42.60
12477;DHT22;6303;51.504;6.300;2023-06-14T05:03:14;29.60;43.10
12477;DHT22;6303;51.504;6.300;2023-06-14T05:05:45;29.50;43.80
12477;DHT22;6303;51.504;6.300;2023-06-14T05:08:12;29.50;45.50
12477;DHT22;6303;51.504;6.300;2023-06-14T05:10:39;29.60;47.00
12477;DHT22;6303;51.504;6.300;2023-06-14T05:13:06;29.50;47.50
12477;DHT22;6303;51.504;6.300;2023-06-14T05:15:34;29.60;47.40
12477;DHT22;6303;51.504;6.300;2023-06-14T05:18:01;29.60;47.00
12477;DHT22;6303;51.504;6.300;2023-06-14T05:20:28;29.50;46.20
12477;DHT22;6303;51.504;6.300;2023-06-14T05:22:57;29.50;45.00
12477;DHT22;6303;51.504;6.300;2023-06-14T05:25:24;29.60;45.50
12477;DHT22;6303;51.504;6.300;2023-06-14T05:27:51;29.60;45.50
12477;DHT22;6303;51.504;6.300;2023-06-14T05:30:18;29.60;45.50
12477;DHT22;6303;51.504;6.300;2023-06-14T05:32:45;29.60;45.20
12477;DHT22;6303;51.504;6.300;2023-06-14T05:35:12;29.60;45.00
12477;DHT22;6303;51.504;6.300;2023-06-14T05:37:39;29.60;45.00
12477;DHT22;6303;51.504;6.300;2023-06-14T05:40:09;29.60;44.90
12477;DHT22;6303;51.504;6.300;2023-06-14T05:42:36;29.60;44.80
12477;DHT22;6303;51.504;6.300;2023-06-14T05:45:03;29.60;44.70
12477;DHT22;6303;51.504;6.300;2023-06-14T05:47:31;29.60;44.70
12477;DHT22;6303;51.504;6.300;2023-06-14T05:49:58;29.60;44.90
12477;DHT22;6303;51.504;6.300;2023-06-14T05:52:25;29.60;44.90
12477;DHT22;6303;51.504;6.300;2023-06-14T05:54:53;29.60;44.80
12477;DHT22;6303;51.504;6.300;2023-06-14T05:57:22;29.60;44.50
12477;DHT22;6303;51.504;6.300;2023-06-14T05:59:49;29.60;45.20
12477;DHT22;6303;51.504;6.300;2023-06-14T06:02:17;29.60;44.90
12477;DHT22;6303;51.504;6.300;2023-06-14T06:04:44;29.60;44.70
12477;DHT22;6303;51.504;6.300;2023-06-14T06:07:11;29.60;44.50
12477;DHT22;6303;51.504;6.300;2023-06-14T06:09:38;29.70;44.60
12477;DHT22;6303;51.504;6.300;2023-06-14T06:12:06;29.70;44.30
12477;DHT22;6303;51.504;6.300;2023-06-14T06:14:35;29.70;44.40
12477;DHT22;6303;51.504;6.300;2023-06-14T06:17:02;29.70;44.30
12477;DHT22;6303;51.504;6.300;2023-06-14T06:19:29;29.70;44.40
12477;DHT22;6303;51.504;6.300;2023-06-14T06:21:56;29.70;44.30
12477;DHT22;6303;51.504;6.300;2023-06-14T06:24:23;29.70;44.30
12477;DHT22;6303;51.504;6.300;2023-06-14T06:26:50;29.70;44.00
12477;DHT22;6303;51.504;6.300;2023-06-14T06:29:17;29.70;43.80
12477;DHT22;6303;51.504;6.300;2023-06-14T06:31:46;29.70;43.70
12477;DHT22;6303;51.504;6.300;2023-06-14T06:34:13;29.70;43.70
12477;DHT22;6303;51.504;6.300;2023-06-14T06:36:40;29.70;43.70
12477;DHT22;6303;51.504;6.300;2023-06-14T06:39:08;29.80;43.70
12477;DHT22;6303;51.504;6.300;2023-06-14T06:41:36;29.80;43.50
12477;DHT22;6303;51.504;6.300;2023-06-14T06:44:03;29.80;43.60
12477;DHT22;6303;51.504;6.300;2023-06-14T06:46:32;29.80;43.70
12477;DHT22;6303;51.504;6.300;2023-06-14T06:49:01;29.80;44.00
12477;DHT22;6303;51.504;6.300;2023-06-14T06:51:28;29.90;43.60
12477;DHT22;6303;51.504;6.300;2023-06-14T06:53:55;29.80;43.60
12477;DHT22;6303;51.504;6.300;2023-06-14T06:56:22;29.80;43.70
12477;DHT22;6303;51.504;6.300;2023-06-14T06:58:50;29.90;43.60
12477;DHT22;6303;51.504;6.300;2023-06-14T07:01:17;29.90;43.30
12477;DHT22;6303;51.504;6.300;2023-06-14T07:03:45;29.90;43.60
12477;DHT22;6303;51.504;6.300;2023-06-14T07:06:14;29.90;43.30
12477;DHT22;6303;51.504;6.300;2023-06-14T07:08:44;29.90;43.00
12477;DHT22;6303;51.504;6.300;2023-06-14T07:11:11;29.90;42.90
12477;DHT22;6303;51.504;6.300;2023-06-14T07:13:38;29.90;42.70
12477;DHT22;6303;51.504;6.300;2023-06-14T07:16:05;30.00;43.10
12477;DHT22;6303;51.504;6.300;2023-06-14T07:18:32;30.00;43.20
12477;DHT22;6303;51.504;6.300;2023-06-14T07:20:59;30.00;43.10
12477;DHT22;6303;51.504;6.300;2023-06-14T07:23:28;30.10;43.10
12477;DHT22;6303;51.504;6.300;2023-06-14T07:25:55;30.10;42.80
12477;DHT22;6303;51.504;6.300;2023-06-14T07:28:22;30.10;42.50
12477;DHT22;6303;51.504;6.300;2023-06-14T07:30:49;30.10;42.20
12477;DHT22;6303;51.504;6.300;2023-06-14T07:33:16;30.10;42.20
12477;DHT22;6303;51.504;6.300;2023-06-14T07:35:43;30.10;42.20
12477;DHT22;6303;51.504;6.300;2023-06-14T07:38:09;30.10;42.10
12477;DHT22;6303;51.504;6.300;2023-06-14T07:40:38;30.10;42.00
12477;DHT22;6303;51.504;6.300;2023-06-14T07:43:05;30.20;42.10
12477;DHT22;6303;51.504;6.300;2023-06-14T07:45:32;30.10;42.00
12477;DHT22;6303;51.504;6.300;2023-06-14T07:47:59;30.20;41.90
12477;DHT22;6303;51.504;6.300;2023-06-14T07:50:26;30.20;42.10
12477;DHT22;6303;51.504;6.300;2023-06-14T07:52:53;30.20;42.10
12477;DHT22;6303;51.504;6.300;2023-06-14T07:55:20;30.20;42.00
12477;DHT22;6303;51.504;6.300;2023-06-14T07:57:48;30.20;41.80
12477;DHT22;6303;51.504;6.300;2023-06-14T08:00:16;30.20;41.70
12477;DHT22;6303;51.504;6.300;2023-06-14T08:02:45;30.20;41.70
12477;DHT22;6303;51.504;6.300;2023-06-14T08:05:12;30.20;41.60
12477;DHT22;6303;51.504;6.300;2023-06-14T08:07:39;30.30;41.80
12477;DHT22;6303;51.504;6.300;2023-06-14T08:10:07;30.30;41.50
12477;DHT22;6303;51.504;6.300;2023-06-14T08:12:34;30.30;41.40
12477;DHT22;6303;51.504;6.300;2023-06-14T08:15:03;30.30;41.50
12477;DHT22;6303;51.504;6.300;2023-06-14T08:17:30;30.30;41.70
12477;DHT22;6303;51.504;6.300;2023-06-14T08:19:57;30.30;41.60
12477;DHT22;6303;51.504;6.300;2023-06-14T08:22:25;30.30;41.50
12477;DHT22;6303;51.504;6.300;2023-06-14T08:24:53;30.30;41.70
12477;DHT22;6303;51.504;6.300;2023-06-14T08:27:20;30.40;42.30
12477;DHT22;6303;51.504;6.300;2023-06-14T08:29:48;30.40;41.70
12477;DHT22;6303;51.504;6.300;2023-06-14T08:32:17;30.40;41.80
12477;DHT22;6303;51.504;6.300;2023-06-14T08:34:44;30.40;41.90
12477;DHT22;6303;51.504;6.300;2023-06-14T08:37:11;30.40;42.00
12477;DHT22;6303;51.504;6.300;2023-06-14T08:39:38;30.40;41.70
12477;DHT22;6303;51.504;6.300;2023-06-14T08:42:06;30.50;42.00
12477;DHT22;6303;51.504;6.300;2023-06-14T08:44:34;30.40;42.00
12477;DHT22;6303;51.504;6.300;2023-06-14T08:47:01;30.50;42.10
12477;DHT22;6303;51.504;6.300;2023-06-14T08:49:31;30.50;42.20
12477;DHT22;6303;51.504;6.300;2023-06-14T08:52:00;30.50;42.00
12477;DHT22;6303;51.504;6.300;2023-06-14T08:54:28;30.50;42.00
12477;DHT22;6303;51.504;6.300;2023-06-14T08:56:56;30.50;41.90
12477;DHT22;6303;51.504;6.300;2023-06-14T08:59:24;30.50;41.30
12477;DHT22;6303;51.504;6.300;2023-06-14T09:01:52;30.50;41.10
12477;DHT22;6303;51.504;6.300;2023-06-14T09:04:20;30.50;41.20
12477;DHT22;6303;51.504;6.300;2023-06-14T09:06:49;30.60;41.40
12477;DHT22;6303;51.504;6.300;2023-06-14T09:09:19;30.60;41.40
12477;DHT22;6303;51.504;6.300;2023-06-14T09:11:46;30.60;41.50
12477;DHT22;6303;51.504;6.300;2023-06-14T09:14:13;30.60;41.60
12477;DHT22;6303;51.504;6.300;2023-06-14T09:16:40;29.50;41.00
12477;DHT22;6303;51.504;6.300;2023-06-14T09:19:08;30.70;41.80
12477;DHT22;6303;51.504;6.300;2023-06-14T09:21:35;30.70;41.80
12477;DHT22;6303;51.504;6.300;2023-06-14T09:24:05;30.70;41.90
12477;DHT22;6303;51.504;6.300;2023-06-14T09:26:32;30.70;41.80
12477;DHT22;6303;51.504;6.300;2023-06-14T09:28:59;30.70;41.80
12477;DHT22;6303;51.504;6.300;2023-06-14T09:31:26;30.70;41.70
12477;DHT22;6303;51.504;6.300;2023-06-14T09:33:57;30.70;41.50
12477;DHT22;6303;51.504;6.300;2023-06-14T09:36:25;30.70;41.50
12477;DHT22;6303;51.504;6.300;2023-06-14T09:38:53;30.70;41.40
12477;DHT22;6303;51.504;6.300;2023-06-14T09:41:30;30.70;41.40
12477;DHT22;6303;51.504;6.300;2023-06-14T09:43:58;30.70;41.20
12477;DHT22;6303;51.504;6.300;2023-06-14T09:46:27;30.70;41.50
12477;DHT22;6303;51.504;6.300;2023-06-14T09:48:54;30.70;41.40
12477;DHT22;6303;51.504;6.300;2023-06-14T09:51:22;30.80;41.60
12477;DHT22;6303;51.504;6.300;2023-06-14T09:53:50;30.70;41.40
12477;DHT22;6303;51.504;6.300;2023-06-14T09:56:25;30.80;41.50
12477;DHT22;6303;51.504;6.300;2023-06-14T09:58:55;30.80;41.30
12477;DHT22;6303;51.504;6.300;2023-06-14T10:01:24;30.80;41.30
12477;DHT22;6303;51.504;6.300;2023-06-14T10:03:55;30.80;41.20
12477;DHT22;6303;51.504;6.300;2023-06-14T10:06:25;30.80;41.00
12477;DHT22;6303;51.504;6.300;2023-06-14T10:08:56;30.70;41.20
12477;DHT22;6303;51.504;6.300;2023-06-14T10:11:27;30.80;41.10
12477;DHT22;6303;51.504;6.300;2023-06-14T10:13:55;30.80;41.20
12477;DHT22;6303;51.504;6.300;2023-06-14T10:16:27;30.80;41.00
12477;DHT22;6303;51.504;6.300;2023-06-14T10:19:03;30.80;41.00
12477;DHT22;6303;51.504;6.300;2023-06-14T10:21:36;30.80;41.00
12477;DHT22;6303;51.504;6.300;2023-06-14T10:24:08;30.80;41.00
12477;DHT22;6303;51.504;6.300;2023-06-14T10:26:50;30.80;41.00
12477;DHT22;6303;51.504;6.300;2023-06-14T10:29:18;30.80;40.90
12477;DHT22;6303;51.504;6.300;2023-06-14T10:31:47;30.80;41.00
12477;DHT22;6303;51.504;6.300;2023-06-14T10:34:22;30.80;40.90
12477;DHT22;6303;51.504;6.300;2023-06-14T10:37:03;30.80;40.70
12477;DHT22;6303;51.504;6.300;2023-06-14T10:39:31;30.80;40.70
12477;DHT22;6303;51.504;6.300;2023-06-14T10:42:01;30.80;40.80
12477;DHT22;6303;51.504;6.300;2023-06-14T10:44:49;30.90;40.90
12477;DHT22;6303;51.504;6.300;2023-06-14T10:47:22;30.90;40.90
12477;DHT22;6303;51.504;6.300;2023-06-14T10:49:51;30.90;41.00
12477;DHT22;6303;51.504;6.300;2023-06-14T10:52:23;30.90;41.10
12477;DHT22;6303;51.504;6.300;2023-06-14T10:55:01;30.90;40.90
12477;DHT22;6303;51.504;6.300;2023-06-14T10:57:31;30.90;40.90
12477;DHT22;6303;51.504;6.300;2023-06-14T10:59:58;30.90;40.90
12477;DHT22;6303;51.504;6.300;2023-06-14T11:05:41;30.90;40.90
12477;DHT22;6303;51.504;6.300;2023-06-14T11:08:30;30.90;40.80
12477;DHT22;6303;51.504;6.300;2023-06-14T11:11:01;30.90;40.70
12477;DHT22;6303;51.504;6.300;2023-06-14T11:13:34;30.90;40.60
12477;DHT22;6303;51.504;6.300;2023-06-14T11:16:10;30.90;40.60
12477;DHT22;6303;51.504;6.300;2023-06-14T11:18:37;30.90;40.70
12477;DHT22;6303;51.504;6.300;2023-06-14T11:21:04;31.00;40.70
12477;DHT22;6303;51.504;6.300;2023-06-14T11:23:31;31.00;40.80
12477;DHT22;6303;51.504;6.300;2023-06-14T11:25:58;31.00;40.70
12477;DHT22;6303;51.504;6.300;2023-06-14T11:28:37;30.90;40.70
12477;DHT22;6303;51.504;6.300;2023-06-14T11:31:04;30.90;40.60
12477;DHT22;6303;51.504;6.300;2023-06-14T11:33:31;31.00;40.70
12477;DHT22;6303;51.504;6.300;2023-06-14T11:35:58;31.00;40.70
12477;DHT22;6303;51.504;6.300;2023-06-14T11:38:28;31.00;40.70
12477;DHT22;6303;51.504;6.300;2023-06-14T11:40:58;30.90;40.40
12477;DHT22;6303;51.504;6.300;2023-06-14T11:43:26;31.00;40.50
12477;DHT22;6303;51.504;6.300;2023-06-14T11:45:56;31.00;40.50
12477;DHT22;6303;51.504;6.300;2023-06-14T11:48:23;31.00;40.40
12477;DHT22;6303;51.504;6.300;2023-06-14T11:50:50;31.00;40.40
12477;DHT22;6303;51.504;6.300;2023-06-14T11:53:18;31.00;40.30
12477;DHT22;6303;51.504;6.300;2023-06-14T11:55:45;31.00;40.30
12477;DHT22;6303;51.504;6.300;2023-06-14T11:58:13;31.00;40.20
12477;DHT22;6303;51.504;6.300;2023-06-14T12:00:41;31.00;40.40
12477;DHT22;6303;51.504;6.300;2023-06-14T12:03:11;31.00;40.30
12477;DHT22;6303;51.504;6.300;2023-06-14T12:05:38;31.00;40.40
12477;DHT22;6303;51.504;6.300;2023-06-14T12:08:05;31.00;40.30
12477;DHT22;6303;51.504;6.300;2023-06-14T12:10:39;31.00;40.30
12477;DHT22;6303;51.504;6.300;2023-06-14T12:13:09;31.00;40.30
12477;DHT22;6303;51.504;6.300;2023-06-14T12:15:36;31.00;40.20
12477;DHT22;6303;51.504;6.300;2023-06-14T12:18:05;31.60;40.70
12477;DHT22;6303;51.504;6.300;2023-06-14T12:20:35;31.00;40.20
12477;DHT22;6303;51.504;6.300;2023-06-14T12:23:03;31.00;40.20
12477;DHT22;6303;51.504;6.300;2023-06-14T12:25:31;31.00;40.50
12477;DHT22;6303;51.504;6.300;2023-06-14T12:27:59;31.00;40.30
12477;DHT22;6303;51.504;6.300;2023-06-14T12:30:30;31.00;40.40
12477;DHT22;6303;51.504;6.300;2023-06-14T12:32:57;31.00;40.40
12477;DHT22;6303;51.504;6.300;2023-06-14T12:35:24;31.00;40.20
12477;DHT22;6303;51.504;6.300;2023-06-14T12:37:52;31.00;40.20
12477;DHT22;6303;51.504;6.300;2023-06-14T12:40:19;31.00;40.10
12477;DHT22;6303;51.504;6.300;2023-06-14T12:42:46;31.00;40.00
12477;DHT22;6303;51.504;6.300;2023-06-14T12:45:14;31.00;40.20
12477;DHT22;6303;51.504;6.300;2023-06-14T12:47:41;31.00;40.10
12477;DHT22;6303;51.504;6.300;2023-06-14T12:50:08;31.00;40.10
12477;DHT22;6303;51.504;6.300;2023-06-14T12:52:35;31.00;40.10
12477;DHT22;6303;51.504;6.300;2023-06-14T12:55:05;31.00;40.10
12477;DHT22;6303;51.504;6.300;2023-06-14T12:57:32;31.00;40.00
12477;DHT22;6303;51.504;6.300;2023-06-14T13:00:02;31.00;40.00
12477;DHT22;6303;51.504;6.300;2023-06-14T13:02:30;31.00;40.00
12477;DHT22;6303;51.504;6.300;2023-06-14T13:04:57;31.00;39.90
12477;DHT22;6303;51.504;6.300;2023-06-14T13:07:24;31.00;39.70
12477;DHT22;6303;51.504;6.300;2023-06-14T13:09:51;31.00;39.80
12477;DHT22;6303;51.504;6.300;2023-06-14T13:12:20;31.00;39.90
12477;DHT22;6303;51.504;6.300;2023-06-14T13:14:47;31.00;39.90
12477;DHT22;6303;51.504;6.300;2023-06-14T13:17:14;31.00;39.80
12477;DHT22;6303;51.504;6.300;2023-06-14T13:19:41;31.00;39.90
12477;DHT22;6303;51.504;6.300;2023-06-14T13:22:08;30.80;39.90
12477;DHT22;6303;51.504;6.300;2023-06-14T13:24:36;31.00;39.90
12477;DHT22;6303;51.504;6.300;2023-06-14T13:27:04;31.00;39.90
12477;DHT22;6303;51.504;6.300;2023-06-14T13:29:32;31.00;40.00
12477;DHT22;6303;51.504;6.300;2023-06-14T13:32:01;31.00;39.80
12477;DHT22;6303;51.504;6.300;2023-06-14T13:34:29;31.00;40.00
12477;DHT22;6303;51.504;6.300;2023-06-14T13:36:56;31.00;40.00
12477;DHT22;6303;51.504;6.300;2023-06-14T13:39:24;31.00;40.10
12477;DHT22;6303;51.504;6.300;2023-06-14T13:41:51;31.00;40.00
12477;DHT22;6303;51.504;6.300;2023-06-14T13:44:18;31.00;40.00
12477;DHT22;6303;51.504;6.300;2023-06-14T13:46:48;30.90;39.90
12477;DHT22;6303;51.504;6.300;2023-06-14T13:49:15;31.00;40.00
12477;DHT22;6303;51.504;6.300;2023-06-14T13:51:42;31.00;40.00
12477;DHT22;6303;51.504;6.300;2023-06-14T13:54:12;31.00;39.90
12477;DHT22;6303;51.504;6.300;2023-06-14T13:56:40;31.00;39.90
12477;DHT22;6303;51.504;6.300;2023-06-14T13:59:07;31.00;40.00
12477;DHT22;6303;51.504;6.300;2023-06-14T14:01:35;31.00;39.80
12477;DHT22;6303;51.504;6.300;2023-06-14T14:06:36;31.00;40.10
12477;DHT22;6303;51.504;6.300;2023-06-14T14:09:03;31.00;40.00
12477;DHT22;6303;51.504;6.300;2023-06-14T14:11:30;31.00;39.90
12477;DHT22;6303;51.504;6.300;2023-06-14T14:13:57;30.90;39.90
12477;DHT22;6303;51.504;6.300;2023-06-14T14:16:24;30.90;39.90
12477;DHT22;6303;51.504;6.300;2023-06-14T14:18:51;30.90;39.80
12477;DHT22;6303;51.504;6.300;2023-06-14T14:21:18;30.90;39.80
12477;DHT22;6303;51.504;6.300;2023-06-14T14:23:47;31.00;40.00
12477;DHT22;6303;51.504;6.300;2023-06-14T14:26:15;31.00;40.10
12477;DHT22;6303;51.504;6.300;2023-06-14T14:28:42;30.90;39.90
12477;DHT22;6303;51.504;6.300;2023-06-14T14:31:09;30.90;40.10
12477;DHT22;6303;51.504;6.300;2023-06-14T14:33:36;30.90;40.10
12477;DHT22;6303;51.504;6.300;2023-06-14T14:36:04;31.00;40.20
12477;DHT22;6303;51.504;6.300;2023-06-14T14:38:32;31.00;40.30
12477;DHT22;6303;51.504;6.300;2023-06-14T14:41:00;31.00;40.20
12477;DHT22;6303;51.504;6.300;2023-06-14T14:43:28;30.90;40.10
12477;DHT22;6303;51.504;6.300;2023-06-14T14:45:56;31.00;40.30
12477;DHT22;6303;51.504;6.300;2023-06-14T14:48:23;30.90;40.30
12477;DHT22;6303;51.504;6.300;2023-06-14T14:50:50;30.90;40.20
12477;DHT22;6303;51.504;6.300;2023-06-14T14:53:17;30.90;40.40
12477;DHT22;6303;51.504;6.300;2023-06-14T14:55:44;31.00;40.30
12477;DHT22;6303;51.504;6.300;2023-06-14T14:58:13;31.00;40.30
12477;DHT22;6303;51.504;6.300;2023-06-14T15:00:44;31.00;40.30
12477;DHT22;6303;51.504;6.300;2023-06-14T15:03:11;30.90;40.10
12477;DHT22;6303;51.504;6.300;2023-06-14T15:05:38;31.00;40.20
12477;DHT22;6303;51.504;6.300;2023-06-14T15:08:05;31.00;39.90
12477;DHT22;6303;51.504;6.300;2023-06-14T15:10:37;31.00;40.00
12477;DHT22;6303;51.504;6.300;2023-06-14T15:13:06;31.00;39.90
12477;DHT22;6303;51.504;6.300;2023-06-14T15:15:35;31.00;39.80
12477;DHT22;6303;51.504;6.300;2023-06-14T15:18:03;31.00;39.90
12477;DHT22;6303;51.504;6.300;2023-06-14T15:20:30;31.00;40.00
12477;DHT22;6303;51.504;6.300;2023-06-14T15:22:57;30.90;40.00
12477;DHT22;6303;51.504;6.300;2023-06-14T15:25:25;30.90;40.00
12477;DHT22;6303;51.504;6.300;2023-06-14T15:27:52;30.90;40.10
12477;DHT22;6303;51.504;6.300;2023-06-14T15:30:19;31.00;40.20
12477;DHT22;6303;51.504;6.300;2023-06-14T15:32:48;31.00;40.30
12477;DHT22;6303;51.504;6.300;2023-06-14T15:35:16;31.00;40.30
12477;DHT22;6303;51.504;6.300;2023-06-14T15:37:44;31.00;40.40
12477;DHT22;6303;51.504;6.300;2023-06-14T15:40:11;31.00;40.20
12477;DHT22;6303;51.504;6.300;2023-06-14T15:42:39;31.00;40.10
12477;DHT22;6303;51.504;6.300;2023-06-14T15:45:06;31.00;40.80
12477;DHT22;6303;51.504;6.300;2023-06-14T15:47:33;30.90;40.20
12477;DHT22;6303;51.504;6.300;2023-06-14T15:50:02;31.00;40.30
12477;DHT22;6303;51.504;6.300;2023-06-14T15:52:30;30.90;40.30
12477;DHT22;6303;51.504;6.300;2023-06-14T15:54:57;30.90;40.10
12477;DHT22;6303;51.504;6.300;2023-06-14T15:57:24;30.90;40.10